Main page
METAR-TAF:

METAR-TAF

Airports :

Nouméa / La Tontouta, New Caledonia

La Tontouta International Airport

latitude: 22-01S, longitude: 166-13E, elevation: 16 m

Current weather observation

The report was made 15 minutes ago, at 02:30 UTC
Wind 10 kt from the Southeast, varying between East and South/Southeast
Temperature 30°C
Humidity 49%
Pressure 1011 hPa
Visibility 10 km or more
no clouds below 1500 m and no cumulonimbus

METAR: NWWW 300230Z AUTO 13010KT 100V160 CAVOK 30/18 Q1011 NOSIG

Time: 13:45 (02:45 UTC)

Forecast

The report was made 3 hours and 45 minutes ago, at 23:00 UTC
Forecast valid from 30 at 00 UTC to 30 at 24 UTC
Wind 12 kt from the South/Southeast
Visibility 10 km or more
Few clouds at a height of 2000 ft
Becoming
from 30 at 06 UTC to 30 at 08 UTC
Wind 3 kt from variable directions

TAF: NWWW 292300Z 3000/3024 15012KT 9999 FEW020 BECMG 3006/3008 VRB03KT

Weather observations and forecasts of more than 4000 airports (METAR and TAF reports).

The available stations are represented by yellow and red dots on the map.

Hover mouse over dot to see the name of the station.

Then click to see weather observations and forecasts.

To change the map : click on the green buttons with a black cross to zoom in, on the green button with a dash to zoom out, or on the green arrows for adjacent maps.


METAR-TAF: